sensor_id;sensor_type;location;lat;lon;timestamp;P1;durP1;ratioP1;P2;durP2;ratioP2
36221;SDS011;22266;52.340;4.962;2023-04-29T00:02:15;32.50;;;30.00;;
36221;SDS011;22266;52.340;4.962;2023-04-29T00:04:41;40.00;;;31.25;;
36221;SDS011;22266;52.340;4.962;2023-04-29T00:07:08;30.00;;;26.50;;
36221;SDS011;22266;52.340;4.962;2023-04-29T00:09:34;35.75;;;28.75;;
36221;SDS011;22266;52.340;4.962;2023-04-29T00:12:02;33.00;;;25.75;;
36221;SDS011;22266;52.340;4.962;2023-04-29T00:14:29;35.50;;;27.50;;
36221;SDS011;22266;52.340;4.962;2023-04-29T00:16:58;29.00;;;23.25;;
36221;SDS011;22266;52.340;4.962;2023-04-29T00:19:25;29.50;;;27.25;;
36221;SDS011;22266;52.340;4.962;2023-04-29T00:21:51;29.25;;;25.00;;
36221;SDS011;22266;52.340;4.962;2023-04-29T00:24:19;22.00;;;20.75;;
36221;SDS011;22266;52.340;4.962;2023-04-29T00:26:46;31.50;;;30.00;;
36221;SDS011;22266;52.340;4.962;2023-04-29T00:29:12;26.00;;;21.00;;
36221;SDS011;22266;52.340;4.962;2023-04-29T00:31:39;27.00;;;25.50;;
36221;SDS011;22266;52.340;4.962;2023-04-29T00:34:05;28.75;;;26.25;;
36221;SDS011;22266;52.340;4.962;2023-04-29T00:36:32;26.25;;;22.50;;
36221;SDS011;22266;52.340;4.962;2023-04-29T00:38:58;30.00;;;25.00;;
36221;SDS011;22266;52.340;4.962;2023-04-29T00:41:25;23.00;;;21.25;;
36221;SDS011;22266;52.340;4.962;2023-04-29T00:43:51;39.00;;;30.75;;
36221;SDS011;22266;52.340;4.962;2023-04-29T00:46:18;33.50;;;31.00;;
36221;SDS011;22266;52.340;4.962;2023-04-29T00:48:45;28.50;;;25.00;;
36221;SDS011;22266;52.340;4.962;2023-04-29T00:51:11;27.50;;;24.00;;
36221;SDS011;22266;52.340;4.962;2023-04-29T00:53:39;18.00;;;16.50;;
36221;SDS011;22266;52.340;4.962;2023-04-29T00:56:06;23.00;;;23.00;;
36221;SDS011;22266;52.340;4.962;2023-04-29T00:58:36;27.50;;;20.50;;
36221;SDS011;22266;52.340;4.962;2023-04-29T01:01:04;16.75;;;15.00;;
36221;SDS011;22266;52.340;4.962;2023-04-29T01:03:32;25.25;;;20.50;;
36221;SDS011;22266;52.340;4.962;2023-04-29T01:08:51;26.00;;;23.75;;
36221;SDS011;22266;52.340;4.962;2023-04-29T01:12:31;21.50;;;19.50;;
36221;SDS011;22266;52.340;4.962;2023-04-29T01:17:43;25.25;;;18.75;;
36221;SDS011;22266;52.340;4.962;2023-04-29T01:20:17;21.50;;;19.50;;
36221;SDS011;22266;52.340;4.962;2023-04-29T01:22:44;21.00;;;20.00;;
36221;SDS011;22266;52.340;4.962;2023-04-29T01:25:11;23.00;;;20.25;;
36221;SDS011;22266;52.340;4.962;2023-04-29T01:30:56;37.75;;;32.75;;
36221;SDS011;22266;52.340;4.962;2023-04-29T01:34:07;30.00;;;25.25;;
36221;SDS011;22266;52.340;4.962;2023-04-29T01:36:52;25.75;;;24.50;;
36221;SDS011;22266;52.340;4.962;2023-04-29T01:42:35;32.00;;;30.00;;
36221;SDS011;22266;52.340;4.962;2023-04-29T01:45:10;23.75;;;21.25;;
36221;SDS011;22266;52.340;4.962;2023-04-29T01:47:41;27.50;;;23.00;;
36221;SDS011;22266;52.340;4.962;2023-04-29T01:50:09;19.00;;;17.50;;
36221;SDS011;22266;52.340;4.962;2023-04-29T01:52:36;29.50;;;27.50;;
36221;SDS011;22266;52.340;4.962;2023-04-29T01:55:03;17.25;;;16.50;;
36221;SDS011;22266;52.340;4.962;2023-04-29T01:57:39;26.25;;;20.75;;
36221;SDS011;22266;52.340;4.962;2023-04-29T02:00:35;27.50;;;24.75;;
36221;SDS011;22266;52.340;4.962;2023-04-29T02:03:03;24.50;;;22.00;;
36221;SDS011;22266;52.340;4.962;2023-04-29T02:05:36;26.75;;;24.50;;
36221;SDS011;22266;52.340;4.962;2023-04-29T02:08:02;32.50;;;26.25;;
36221;SDS011;22266;52.340;4.962;2023-04-29T02:10:31;23.00;;;21.25;;
36221;SDS011;22266;52.340;4.962;2023-04-29T02:13:09;27.50;;;26.75;;
36221;SDS011;22266;52.340;4.962;2023-04-29T02:15:39;32.00;;;26.75;;
36221;SDS011;22266;52.340;4.962;2023-04-29T02:18:06;31.50;;;29.50;;
36221;SDS011;22266;52.340;4.962;2023-04-29T02:20:33;27.50;;;25.50;;
36221;SDS011;22266;52.340;4.962;2023-04-29T02:23:03;34.75;;;27.75;;
36221;SDS011;22266;52.340;4.962;2023-04-29T02:25:30;30.00;;;27.75;;
36221;SDS011;22266;52.340;4.962;2023-04-29T02:27:57;29.75;;;27.75;;
36221;SDS011;22266;52.340;4.962;2023-04-29T02:30:24;33.50;;;30.50;;
36221;SDS011;22266;52.340;4.962;2023-04-29T02:32:51;26.50;;;22.75;;
36221;SDS011;22266;52.340;4.962;2023-04-29T02:35:18;24.75;;;21.25;;
36221;SDS011;22266;52.340;4.962;2023-04-29T02:37:45;30.50;;;27.50;;
36221;SDS011;22266;52.340;4.962;2023-04-29T02:40:12;23.00;;;22.75;;
36221;SDS011;22266;52.340;4.962;2023-04-29T02:42:38;33.25;;;27.50;;
36221;SDS011;22266;52.340;4.962;2023-04-29T02:45:05;27.00;;;24.25;;
36221;SDS011;22266;52.340;4.962;2023-04-29T02:47:32;23.00;;;21.25;;
36221;SDS011;22266;52.340;4.962;2023-04-29T02:49:59;34.75;;;26.25;;
36221;SDS011;22266;52.340;4.962;2023-04-29T02:52:25;23.50;;;21.75;;
36221;SDS011;22266;52.340;4.962;2023-04-29T02:54:52;24.50;;;22.00;;
36221;SDS011;22266;52.340;4.962;2023-04-29T02:57:18;29.50;;;22.75;;
36221;SDS011;22266;52.340;4.962;2023-04-29T02:59:45;28.75;;;26.00;;
36221;SDS011;22266;52.340;4.962;2023-04-29T03:02:12;26.25;;;21.25;;
36221;SDS011;22266;52.340;4.962;2023-04-29T03:04:39;34.25;;;33.00;;
36221;SDS011;22266;52.340;4.962;2023-04-29T03:07:06;31.25;;;27.25;;
36221;SDS011;22266;52.340;4.962;2023-04-29T03:09:33;36.25;;;29.00;;
36221;SDS011;22266;52.340;4.962;2023-04-29T03:12:00;25.75;;;25.75;;
36221;SDS011;22266;52.340;4.962;2023-04-29T03:14:28;31.25;;;25.25;;
36221;SDS011;22266;52.340;4.962;2023-04-29T03:16:56;27.50;;;25.00;;
36221;SDS011;22266;52.340;4.962;2023-04-29T03:19:23;24.75;;;24.75;;
36221;SDS011;22266;52.340;4.962;2023-04-29T03:21:49;30.75;;;30.50;;
36221;SDS011;22266;52.340;4.962;2023-04-29T03:24:19;23.00;;;23.00;;
36221;SDS011;22266;52.340;4.962;2023-04-29T03:26:46;33.50;;;26.50;;
36221;SDS011;22266;52.340;4.962;2023-04-29T03:29:12;25.50;;;23.50;;
36221;SDS011;22266;52.340;4.962;2023-04-29T03:31:39;36.50;;;30.00;;
36221;SDS011;22266;52.340;4.962;2023-04-29T03:34:05;30.25;;;30.00;;
36221;SDS011;22266;52.340;4.962;2023-04-29T03:36:36;26.50;;;22.75;;
36221;SDS011;22266;52.340;4.962;2023-04-29T03:39:05;37.25;;;29.00;;
36221;SDS011;22266;52.340;4.962;2023-04-29T03:41:32;30.50;;;25.00;;
36221;SDS011;22266;52.340;4.962;2023-04-29T03:43:59;30.50;;;26.25;;
36221;SDS011;22266;52.340;4.962;2023-04-29T03:46:27;25.25;;;24.50;;
36221;SDS011;22266;52.340;4.962;2023-04-29T03:48:56;26.50;;;23.25;;
36221;SDS011;22266;52.340;4.962;2023-04-29T03:51:23;36.00;;;29.75;;
36221;SDS011;22266;52.340;4.962;2023-04-29T03:53:55;26.75;;;25.75;;
36221;SDS011;22266;52.340;4.962;2023-04-29T03:56:23;33.25;;;22.25;;
36221;SDS011;22266;52.340;4.962;2023-04-29T03:58:53;34.00;;;30.75;;
36221;SDS011;22266;52.340;4.962;2023-04-29T04:01:22;28.25;;;24.75;;
36221;SDS011;22266;52.340;4.962;2023-04-29T04:03:48;31.00;;;29.75;;
36221;SDS011;22266;52.340;4.962;2023-04-29T04:06:15;30.75;;;26.75;;
36221;SDS011;22266;52.340;4.962;2023-04-29T04:08:42;34.25;;;29.00;;
36221;SDS011;22266;52.340;4.962;2023-04-29T04:11:12;27.75;;;26.50;;
36221;SDS011;22266;52.340;4.962;2023-04-29T04:13:44;33.00;;;29.75;;
36221;SDS011;22266;52.340;4.962;2023-04-29T04:16:11;31.50;;;25.50;;
36221;SDS011;22266;52.340;4.962;2023-04-29T04:18:38;22.25;;;22.25;;
36221;SDS011;22266;52.340;4.962;2023-04-29T04:21:09;26.75;;;24.00;;
36221;SDS011;22266;52.340;4.962;2023-04-29T04:23:39;27.00;;;21.50;;
36221;SDS011;22266;52.340;4.962;2023-04-29T04:26:08;26.00;;;22.50;;
36221;SDS011;22266;52.340;4.962;2023-04-29T04:28:53;26.50;;;26.00;;
36221;SDS011;22266;52.340;4.962;2023-04-29T04:31:45;27.75;;;25.25;;
36221;SDS011;22266;52.340;4.962;2023-04-29T04:34:14;23.50;;;20.25;;
36221;SDS011;22266;52.340;4.962;2023-04-29T04:36:41;26.25;;;21.75;;
36221;SDS011;22266;52.340;4.962;2023-04-29T04:39:11;29.00;;;27.50;;
36221;SDS011;22266;52.340;4.962;2023-04-29T04:41:37;23.50;;;20.50;;
36221;SDS011;22266;52.340;4.962;2023-04-29T04:44:04;34.25;;;30.00;;
36221;SDS011;22266;52.340;4.962;2023-04-29T04:46:40;38.75;;;29.25;;
36221;SDS011;22266;52.340;4.962;2023-04-29T04:49:12;38.50;;;31.00;;
36221;SDS011;22266;52.340;4.962;2023-04-29T04:51:46;22.00;;;21.75;;
36221;SDS011;22266;52.340;4.962;2023-04-29T04:54:13;33.25;;;26.75;;
36221;SDS011;22266;52.340;4.962;2023-04-29T04:56:40;30.25;;;25.50;;
36221;SDS011;22266;52.340;4.962;2023-04-29T04:59:06;22.75;;;19.25;;
36221;SDS011;22266;52.340;4.962;2023-04-29T05:01:35;19.75;;;18.00;;
36221;SDS011;22266;52.340;4.962;2023-04-29T05:04:02;31.00;;;24.00;;
36221;SDS011;22266;52.340;4.962;2023-04-29T05:06:29;22.00;;;21.75;;
36221;SDS011;22266;52.340;4.962;2023-04-29T05:08:56;26.50;;;25.25;;
36221;SDS011;22266;52.340;4.962;2023-04-29T05:11:23;26.75;;;24.00;;
36221;SDS011;22266;52.340;4.962;2023-04-29T05:14:08;27.25;;;27.25;;
36221;SDS011;22266;52.340;4.962;2023-04-29T05:16:34;28.75;;;25.00;;
36221;SDS011;22266;52.340;4.962;2023-04-29T05:19:01;20.25;;;17.75;;
36221;SDS011;22266;52.340;4.962;2023-04-29T05:21:31;28.50;;;26.75;;
36221;SDS011;22266;52.340;4.962;2023-04-29T05:23:58;21.00;;;21.00;;
36221;SDS011;22266;52.340;4.962;2023-04-29T05:26:25;18.75;;;18.75;;
36221;SDS011;22266;52.340;4.962;2023-04-29T05:28:55;24.25;;;23.00;;
36221;SDS011;22266;52.340;4.962;2023-04-29T05:31:22;23.00;;;21.75;;
36221;SDS011;22266;52.340;4.962;2023-04-29T05:33:49;27.50;;;25.00;;
36221;SDS011;22266;52.340;4.962;2023-04-29T05:36:16;28.75;;;27.00;;
36221;SDS011;22266;52.340;4.962;2023-04-29T05:38:42;21.75;;;20.75;;
36221;SDS011;22266;52.340;4.962;2023-04-29T05:41:10;19.00;;;19.00;;
36221;SDS011;22266;52.340;4.962;2023-04-29T05:43:59;24.00;;;24.00;;
36221;SDS011;22266;52.340;4.962;2023-04-29T05:46:26;19.00;;;18.00;;
36221;SDS011;22266;52.340;4.962;2023-04-29T05:48:53;31.25;;;21.25;;
36221;SDS011;22266;52.340;4.962;2023-04-29T05:51:21;27.75;;;24.00;;
36221;SDS011;22266;52.340;4.962;2023-04-29T05:53:47;29.00;;;24.75;;
36221;SDS011;22266;52.340;4.962;2023-04-29T05:56:14;21.00;;;18.50;;
36221;SDS011;22266;52.340;4.962;2023-04-29T05:58:41;23.75;;;22.00;;
36221;SDS011;22266;52.340;4.962;2023-04-29T06:01:08;25.00;;;19.00;;
36221;SDS011;22266;52.340;4.962;2023-04-29T06:03:34;21.25;;;18.00;;
36221;SDS011;22266;52.340;4.962;2023-04-29T06:06:20;24.50;;;20.50;;
36221;SDS011;22266;52.340;4.962;2023-04-29T06:09:05;27.00;;;20.50;;
36221;SDS011;22266;52.340;4.962;2023-04-29T06:11:45;21.25;;;19.50;;
36221;SDS011;22266;52.340;4.962;2023-04-29T06:14:12;19.25;;;19.25;;
36221;SDS011;22266;52.340;4.962;2023-04-29T06:16:39;18.75;;;17.25;;
36221;SDS011;22266;52.340;4.962;2023-04-29T06:19:07;28.00;;;22.00;;
36221;SDS011;22266;52.340;4.962;2023-04-29T06:21:33;22.25;;;21.75;;
36221;SDS011;22266;52.340;4.962;2023-04-29T06:24:00;19.25;;;18.75;;
36221;SDS011;22266;52.340;4.962;2023-04-29T06:26:26;17.25;;;16.50;;
36221;SDS011;22266;52.340;4.962;2023-04-29T06:28:53;20.50;;;19.25;;
36221;SDS011;22266;52.340;4.962;2023-04-29T06:31:20;23.00;;;19.75;;
36221;SDS011;22266;52.340;4.962;2023-04-29T06:33:49;24.25;;;21.75;;
36221;SDS011;22266;52.340;4.962;2023-04-29T06:36:16;22.00;;;20.00;;
36221;SDS011;22266;52.340;4.962;2023-04-29T06:39:08;20.50;;;19.00;;
36221;SDS011;22266;52.340;4.962;2023-04-29T06:41:34;31.50;;;23.50;;
36221;SDS011;22266;52.340;4.962;2023-04-29T06:44:20;21.75;;;21.25;;
36221;SDS011;22266;52.340;4.962;2023-04-29T06:47:10;18.75;;;17.25;;
36221;SDS011;22266;52.340;4.962;2023-04-29T06:50:06;18.50;;;17.00;;
36221;SDS011;22266;52.340;4.962;2023-04-29T06:52:33;22.75;;;21.75;;
36221;SDS011;22266;52.340;4.962;2023-04-29T06:54:59;31.00;;;21.25;;
36221;SDS011;22266;52.340;4.962;2023-04-29T06:57:26;23.50;;;21.00;;
36221;SDS011;22266;52.340;4.962;2023-04-29T06:59:52;16.25;;;14.50;;
36221;SDS011;22266;52.340;4.962;2023-04-29T07:02:19;18.75;;;16.75;;
36221;SDS011;22266;52.340;4.962;2023-04-29T07:04:45;14.50;;;13.50;;
36221;SDS011;22266;52.340;4.962;2023-04-29T07:07:14;14.75;;;12.00;;
36221;SDS011;22266;52.340;4.962;2023-04-29T07:09:40;16.00;;;16.00;;
36221;SDS011;22266;52.340;4.962;2023-04-29T07:12:07;22.75;;;16.50;;
36221;SDS011;22266;52.340;4.962;2023-04-29T07:14:33;18.00;;;17.75;;
36221;SDS011;22266;52.340;4.962;2023-04-29T07:17:02;23.25;;;18.50;;
36221;SDS011;22266;52.340;4.962;2023-04-29T07:19:29;13.25;;;12.25;;
36221;SDS011;22266;52.340;4.962;2023-04-29T07:21:56;18.00;;;16.00;;
36221;SDS011;22266;52.340;4.962;2023-04-29T07:24:23;18.50;;;16.00;;
36221;SDS011;22266;52.340;4.962;2023-04-29T07:26:49;13.00;;;13.00;;
36221;SDS011;22266;52.340;4.962;2023-04-29T07:29:16;15.75;;;13.75;;
36221;SDS011;22266;52.340;4.962;2023-04-29T07:31:42;17.25;;;17.00;;
36221;SDS011;22266;52.340;4.962;2023-04-29T07:34:09;15.00;;;13.50;;
36221;SDS011;22266;52.340;4.962;2023-04-29T07:36:36;19.25;;;16.00;;
36221;SDS011;22266;52.340;4.962;2023-04-29T07:39:03;22.25;;;15.00;;
36221;SDS011;22266;52.340;4.962;2023-04-29T07:41:30;19.50;;;18.25;;
36221;SDS011;22266;52.340;4.962;2023-04-29T07:43:57;15.25;;;14.75;;
36221;SDS011;22266;52.340;4.962;2023-04-29T07:46:24;14.25;;;12.50;;
36221;SDS011;22266;52.340;4.962;2023-04-29T07:48:50;12.00;;;10.50;;
36221;SDS011;22266;52.340;4.962;2023-04-29T07:51:18;19.75;;;17.75;;
36221;SDS011;22266;52.340;4.962;2023-04-29T07:53:44;16.00;;;13.25;;
36221;SDS011;22266;52.340;4.962;2023-04-29T07:56:10;18.75;;;17.00;;
36221;SDS011;22266;52.340;4.962;2023-04-29T07:58:38;16.25;;;14.25;;
36221;SDS011;22266;52.340;4.962;2023-04-29T08:01:08;14.75;;;12.25;;
36221;SDS011;22266;52.340;4.962;2023-04-29T08:03:35;10.25;;;9.50;;
36221;SDS011;22266;52.340;4.962;2023-04-29T08:06:07;14.25;;;10.00;;
36221;SDS011;22266;52.340;4.962;2023-04-29T08:08:33;9.25;;;9.25;;
36221;SDS011;22266;52.340;4.962;2023-04-29T08:11:00;14.75;;;12.25;;
36221;SDS011;22266;52.340;4.962;2023-04-29T08:13:27;16.00;;;16.00;;
36221;SDS011;22266;52.340;4.962;2023-04-29T08:15:53;18.75;;;16.50;;
36221;SDS011;22266;52.340;4.962;2023-04-29T08:18:20;12.00;;;9.50;;
36221;SDS011;22266;52.340;4.962;2023-04-29T08:20:47;20.00;;;14.50;;
36221;SDS011;22266;52.340;4.962;2023-04-29T08:23:14;17.00;;;14.75;;
36221;SDS011;22266;52.340;4.962;2023-04-29T08:25:41;15.75;;;14.25;;
36221;SDS011;22266;52.340;4.962;2023-04-29T08:28:09;12.50;;;12.00;;
36221;SDS011;22266;52.340;4.962;2023-04-29T08:30:36;11.00;;;9.50;;
36221;SDS011;22266;52.340;4.962;2023-04-29T08:33:07;10.50;;;9.25;;
36221;SDS011;22266;52.340;4.962;2023-04-29T08:35:34;15.25;;;13.00;;
36221;SDS011;22266;52.340;4.962;2023-04-29T08:38:06;9.75;;;9.00;;
36221;SDS011;22266;52.340;4.962;2023-04-29T08:40:34;9.50;;;9.00;;
36221;SDS011;22266;52.340;4.962;2023-04-29T08:43:01;11.75;;;9.75;;
36221;SDS011;22266;52.340;4.962;2023-04-29T08:45:29;12.00;;;12.00;;
36221;SDS011;22266;52.340;4.962;2023-04-29T08:47:57;8.00;;;7.50;;
36221;SDS011;22266;52.340;4.962;2023-04-29T08:50:24;12.00;;;11.50;;
36221;SDS011;22266;52.340;4.962;2023-04-29T08:52:53;15.75;;;14.00;;
36221;SDS011;22266;52.340;4.962;2023-04-29T08:55:20;17.00;;;14.25;;
36221;SDS011;22266;52.340;4.962;2023-04-29T08:57:47;10.75;;;8.00;;
36221;SDS011;22266;52.340;4.962;2023-04-29T09:00:15;12.25;;;11.00;;
36221;SDS011;22266;52.340;4.962;2023-04-29T09:02:43;12.50;;;11.25;;
36221;SDS011;22266;52.340;4.962;2023-04-29T09:05:14;12.00;;;10.00;;
36221;SDS011;22266;52.340;4.962;2023-04-29T09:07:41;12.00;;;11.00;;
36221;SDS011;22266;52.340;4.962;2023-04-29T09:10:09;14.50;;;11.50;;
36221;SDS011;22266;52.340;4.962;2023-04-29T09:12:36;11.00;;;9.50;;
36221;SDS011;22266;52.340;4.962;2023-04-29T09:15:03;11.75;;;10.50;;
36221;SDS011;22266;52.340;4.962;2023-04-29T09:17:39;15.25;;;11.75;;
36221;SDS011;22266;52.340;4.962;2023-04-29T09:22:50;11.50;;;9.25;;
36221;SDS011;22266;52.340;4.962;2023-04-29T09:25:24;13.50;;;11.00;;
36221;SDS011;22266;52.340;4.962;2023-04-29T09:27:52;11.00;;;9.50;;
36221;SDS011;22266;52.340;4.962;2023-04-29T09:30:20;14.25;;;11.00;;
36221;SDS011;22266;52.340;4.962;2023-04-29T09:33:07;14.75;;;12.00;;
36221;SDS011;22266;52.340;4.962;2023-04-29T09:35:34;14.75;;;13.75;;
36221;SDS011;22266;52.340;4.962;2023-04-29T09:38:08;13.75;;;12.00;;
36221;SDS011;22266;52.340;4.962;2023-04-29T09:40:40;18.00;;;14.25;;
36221;SDS011;22266;52.340;4.962;2023-04-29T09:43:23;19.25;;;14.25;;
36221;SDS011;22266;52.340;4.962;2023-04-29T09:45:50;15.25;;;12.00;;
36221;SDS011;22266;52.340;4.962;2023-04-29T09:48:17;11.00;;;10.00;;
36221;SDS011;22266;52.340;4.962;2023-04-29T09:50:43;10.50;;;10.50;;
36221;SDS011;22266;52.340;4.962;2023-04-29T09:53:27;15.50;;;12.00;;
36221;SDS011;22266;52.340;4.962;2023-04-29T09:55:59;13.50;;;12.75;;
36221;SDS011;22266;52.340;4.962;2023-04-29T09:58:31;18.75;;;18.75;;
36221;SDS011;22266;52.340;4.962;2023-04-29T10:01:05;13.75;;;13.75;;
36221;SDS011;22266;52.340;4.962;2023-04-29T10:03:33;12.00;;;12.00;;
36221;SDS011;22266;52.340;4.962;2023-04-29T10:06:05;12.50;;;11.50;;
36221;SDS011;22266;52.340;4.962;2023-04-29T10:08:32;16.00;;;13.50;;
36221;SDS011;22266;52.340;4.962;2023-04-29T10:11:03;14.25;;;12.75;;
36221;SDS011;22266;52.340;4.962;2023-04-29T10:13:30;16.50;;;13.00;;
36221;SDS011;22266;52.340;4.962;2023-04-29T10:18:34;19.50;;;16.75;;
36221;SDS011;22266;52.340;4.962;2023-04-29T10:21:05;22.00;;;17.75;;
36221;SDS011;22266;52.340;4.962;2023-04-29T10:23:34;15.00;;;11.75;;
36221;SDS011;22266;52.340;4.962;2023-04-29T10:26:02;10.25;;;10.25;;
36221;SDS011;22266;52.340;4.962;2023-04-29T10:28:29;17.00;;;14.75;;
36221;SDS011;22266;52.340;4.962;2023-04-29T10:30:59;13.25;;;10.25;;
36221;SDS011;22266;52.340;4.962;2023-04-29T10:33:30;14.25;;;14.00;;
36221;SDS011;22266;52.340;4.962;2023-04-29T10:36:00;9.25;;;9.25;;
36221;SDS011;22266;52.340;4.962;2023-04-29T10:38:30;11.50;;;10.25;;
36221;SDS011;22266;52.340;4.962;2023-04-29T10:41:20;12.50;;;11.00;;
36221;SDS011;22266;52.340;4.962;2023-04-29T10:43:51;13.00;;;12.00;;
36221;SDS011;22266;52.340;4.962;2023-04-29T10:46:24;12.00;;;12.00;;
36221;SDS011;22266;52.340;4.962;2023-04-29T10:49:10;11.50;;;11.50;;
36221;SDS011;22266;52.340;4.962;2023-04-29T10:51:40;9.50;;;8.75;;
36221;SDS011;22266;52.340;4.962;2023-04-29T10:54:11;11.50;;;11.00;;
36221;SDS011;22266;52.340;4.962;2023-04-29T10:56:43;11.50;;;10.25;;
36221;SDS011;22266;52.340;4.962;2023-04-29T10:59:15;17.50;;;13.00;;
36221;SDS011;22266;52.340;4.962;2023-04-29T11:01:46;9.25;;;8.25;;
36221;SDS011;22266;52.340;4.962;2023-04-29T11:04:17;11.00;;;10.75;;
36221;SDS011;22266;52.340;4.962;2023-04-29T11:06:50;9.50;;;9.50;;
36221;SDS011;22266;52.340;4.962;2023-04-29T11:11:59;14.00;;;9.50;;
36221;SDS011;22266;52.340;4.962;2023-04-29T11:14:34;11.00;;;11.00;;
36221;SDS011;22266;52.340;4.962;2023-04-29T11:17:06;10.75;;;9.25;;
36221;SDS011;22266;52.340;4.962;2023-04-29T11:19:36;10.00;;;10.00;;
36221;SDS011;22266;52.340;4.962;2023-04-29T11:22:07;9.75;;;9.00;;
36221;SDS011;22266;52.340;4.962;2023-04-29T11:24:35;8.50;;;7.25;;
36221;SDS011;22266;52.340;4.962;2023-04-29T11:27:02;13.50;;;10.25;;
36221;SDS011;22266;52.340;4.962;2023-04-29T11:29:31;9.00;;;9.00;;
36221;SDS011;22266;52.340;4.962;2023-04-29T11:31:58;10.33;;;9.33;;
36221;SDS011;22266;52.340;4.962;2023-04-29T11:34:27;9.00;;;7.00;;
36221;SDS011;22266;52.340;4.962;2023-04-29T11:36:53;10.00;;;8.50;;
36221;SDS011;22266;52.340;4.962;2023-04-29T11:39:19;11.00;;;10.67;;
36221;SDS011;22266;52.340;4.962;2023-04-29T11:41:47;11.67;;;8.33;;
36221;SDS011;22266;52.340;4.962;2023-04-29T11:44:20;16.75;;;11.75;;
36221;SDS011;22266;52.340;4.962;2023-04-29T11:46:48;9.50;;;8.00;;
36221;SDS011;22266;52.340;4.962;2023-04-29T11:49:14;12.50;;;12.00;;
36221;SDS011;22266;52.340;4.962;2023-04-29T11:51:41;13.75;;;13.75;;
36221;SDS011;22266;52.340;4.962;2023-04-29T11:54:07;11.75;;;11.00;;
36221;SDS011;22266;52.340;4.962;2023-04-29T11:56:36;12.50;;;9.25;;
36221;SDS011;22266;52.340;4.962;2023-04-29T11:59:03;12.00;;;9.50;;
36221;SDS011;22266;52.340;4.962;2023-04-29T12:01:34;12.00;;;12.00;;
36221;SDS011;22266;52.340;4.962;2023-04-29T12:04:01;10.67;;;9.67;;
36221;SDS011;22266;52.340;4.962;2023-04-29T12:06:28;15.00;;;13.25;;
36221;SDS011;22266;52.340;4.962;2023-04-29T12:08:57;11.50;;;8.50;;
36221;SDS011;22266;52.340;4.962;2023-04-29T12:11:24;8.00;;;7.00;;
36221;SDS011;22266;52.340;4.962;2023-04-29T12:13:52;15.00;;;12.50;;
36221;SDS011;22266;52.340;4.962;2023-04-29T12:16:20;8.75;;;8.00;;
36221;SDS011;22266;52.340;4.962;2023-04-29T12:18:47;8.00;;;7.00;;
36221;SDS011;22266;52.340;4.962;2023-04-29T12:21:13;8.00;;;6.67;;
36221;SDS011;22266;52.340;4.962;2023-04-29T12:23:40;14.25;;;10.75;;
36221;SDS011;22266;52.340;4.962;2023-04-29T12:26:06;9.75;;;9.25;;
36221;SDS011;22266;52.340;4.962;2023-04-29T12:28:34;6.75;;;6.50;;
36221;SDS011;22266;52.340;4.962;2023-04-29T12:31:00;10.00;;;7.50;;
36221;SDS011;22266;52.340;4.962;2023-04-29T12:33:28;11.25;;;11.00;;
36221;SDS011;22266;52.340;4.962;2023-04-29T12:35:55;12.25;;;10.25;;
36221;SDS011;22266;52.340;4.962;2023-04-29T12:38:24;9.33;;;9.33;;
36221;SDS011;22266;52.340;4.962;2023-04-29T12:40:54;9.00;;;7.25;;
36221;SDS011;22266;52.340;4.962;2023-04-29T12:43:25;11.00;;;7.50;;
36221;SDS011;22266;52.340;4.962;2023-04-29T12:46:02;9.25;;;9.25;;
36221;SDS011;22266;52.340;4.962;2023-04-29T12:48:35;8.75;;;8.00;;
36221;SDS011;22266;52.340;4.962;2023-04-29T12:51:11;8.67;;;8.67;;
36221;SDS011;22266;52.340;4.962;2023-04-29T12:53:38;14.67;;;10.00;;
36221;SDS011;22266;52.340;4.962;2023-04-29T12:56:05;9.33;;;7.33;;
36221;SDS011;22266;52.340;4.962;2023-04-29T12:58:31;13.00;;;11.33;;
36221;SDS011;22266;52.340;4.962;2023-04-29T13:00:59;5.00;;;5.00;;
36221;SDS011;22266;52.340;4.962;2023-04-29T13:03:26;6.33;;;6.33;;
36221;SDS011;22266;52.340;4.962;2023-04-29T13:05:54;5.33;;;5.33;;
36221;SDS011;22266;52.340;4.962;2023-04-29T13:08:21;8.33;;;6.67;;
36221;SDS011;22266;52.340;4.962;2023-04-29T13:10:48;6.00;;;6.00;;
36221;SDS011;22266;52.340;4.962;2023-04-29T13:13:14;5.00;;;5.00;;
36221;SDS011;22266;52.340;4.962;2023-04-29T13:15:41;2.67;;;2.00;;
36221;SDS011;22266;52.340;4.962;2023-04-29T13:18:07;6.67;;;5.67;;
36221;SDS011;22266;52.340;4.962;2023-04-29T13:20:34;8.33;;;5.00;;
36221;SDS011;22266;52.340;4.962;2023-04-29T13:23:07;4.00;;;4.00;;
36221;SDS011;22266;52.340;4.962;2023-04-29T13:25:34;2.00;;;2.00;;
36221;SDS011;22266;52.340;4.962;2023-04-29T13:28:00;7.00;;;4.33;;
36221;SDS011;22266;52.340;4.962;2023-04-29T13:30:27;6.67;;;6.67;;
36221;SDS011;22266;52.340;4.962;2023-04-29T13:32:53;3.25;;;3.25;;
36221;SDS011;22266;52.340;4.962;2023-04-29T13:35:29;5.33;;;5.33;;
36221;SDS011;22266;52.340;4.962;2023-04-29T13:37:56;7.00;;;5.00;;
36221;SDS011;22266;52.340;4.962;2023-04-29T13:40:22;8.00;;;5.00;;
36221;SDS011;22266;52.340;4.962;2023-04-29T13:42:53;7.00;;;5.33;;
36221;SDS011;22266;52.340;4.962;2023-04-29T13:45:31;2.00;;;2.00;;
36221;SDS011;22266;52.340;4.962;2023-04-29T13:48:05;3.67;;;3.67;;
36221;SDS011;22266;52.340;4.962;2023-04-29T13:50:51;4.67;;;2.33;;
36221;SDS011;22266;52.340;4.962;2023-04-29T13:53:20;2.00;;;2.00;;
36221;SDS011;22266;52.340;4.962;2023-04-29T13:56:07;6.33;;;6.00;;
36221;SDS011;22266;52.340;4.962;2023-04-29T13:58:36;5.33;;;5.33;;
36221;SDS011;22266;52.340;4.962;2023-04-29T14:01:23;6.00;;;3.67;;
36221;SDS011;22266;52.340;4.962;2023-04-29T14:03:52;2.33;;;2.33;;
36221;SDS011;22266;52.340;4.962;2023-04-29T14:06:19;3.67;;;3.67;;
36221;SDS011;22266;52.340;4.962;2023-04-29T14:08:45;2.00;;;2.00;;
36221;SDS011;22266;52.340;4.962;2023-04-29T14:11:12;3.00;;;3.00;;
36221;SDS011;22266;52.340;4.962;2023-04-29T14:13:38;2.00;;;2.00;;
36221;SDS011;22266;52.340;4.962;2023-04-29T14:16:05;3.00;;;3.00;;
36221;SDS011;22266;52.340;4.962;2023-04-29T14:18:32;3.00;;;2.33;;
36221;SDS011;22266;52.340;4.962;2023-04-29T14:20:58;4.00;;;4.00;;
36221;SDS011;22266;52.340;4.962;2023-04-29T14:23:24;2.00;;;2.00;;
36221;SDS011;22266;52.340;4.962;2023-04-29T14:25:51;2.67;;;2.67;;
36221;SDS011;22266;52.340;4.962;2023-04-29T14:28:19;2.67;;;2.00;;
36221;SDS011;22266;52.340;4.962;2023-04-29T14:30:46;2.00;;;2.00;;
36221;SDS011;22266;52.340;4.962;2023-04-29T14:33:12;3.33;;;3.33;;
36221;SDS011;22266;52.340;4.962;2023-04-29T14:35:39;2.67;;;2.00;;
36221;SDS011;22266;52.340;4.962;2023-04-29T14:38:06;2.33;;;2.33;;
36221;SDS011;22266;52.340;4.962;2023-04-29T14:40:32;1.00;;;1.00;;
36221;SDS011;22266;52.340;4.962;2023-04-29T14:42:58;3.00;;;3.00;;
36221;SDS011;22266;52.340;4.962;2023-04-29T14:45:26;5.00;;;3.00;;
36221;SDS011;22266;52.340;4.962;2023-04-29T14:47:53;6.00;;;3.33;;
36221;SDS011;22266;52.340;4.962;2023-04-29T14:50:20;4.00;;;4.00;;
36221;SDS011;22266;52.340;4.962;2023-04-29T14:52:48;3.33;;;3.33;;
36221;SDS011;22266;52.340;4.962;2023-04-29T14:55:14;2.00;;;2.00;;
36221;SDS011;22266;52.340;4.962;2023-04-29T14:57:41;2.67;;;2.00;;
36221;SDS011;22266;52.340;4.962;2023-04-29T15:00:08;2.00;;;2.00;;
36221;SDS011;22266;52.340;4.962;2023-04-29T15:02:36;2.00;;;2.00;;